createdAt,value
2017-03-31T00:00:53.896Z,12
2017-03-31T00:01:56.606Z,12
2017-03-31T00:02:59.318Z,12
2017-03-31T00:04:02.421Z,11.9
2017-03-31T00:05:05.338Z,11.9
2017-03-31T00:06:07.046Z,11.9
2017-03-31T00:07:10.268Z,11.9
2017-03-31T00:08:12.618Z,11.9
2017-03-31T00:09:15.581Z,11.9
2017-03-31T00:10:18.425Z,11.8
2017-03-31T00:11:20.771Z,11.8
2017-03-31T00:12:23.484Z,11.8
2017-03-31T00:13:26.191Z,11.8
2017-03-31T00:14:29.156Z,11.8
2017-03-31T00:15:32.006Z,11.8
2017-03-31T00:16:34.214Z,11.8
2017-03-31T00:17:37.058Z,11.8
2017-03-31T00:18:39.901Z,11.8
2017-03-31T00:19:42.866Z,11.8
2017-03-31T00:20:45.207Z,11.8
2017-03-31T00:21:48.050Z,11.8
2017-03-31T00:23:53.309Z,11.7
2017-03-31T00:24:56.414Z,11.7
2017-03-31T00:25:58.758Z,11.7
2017-03-31T00:27:01.468Z,11.7
2017-03-31T00:28:04.311Z,11.7
2017-03-31T00:29:07.156Z,11.7
2017-03-31T00:30:10.253Z,11.7
2017-03-31T00:31:12.462Z,11.7
2017-03-31T00:32:15.310Z,11.7
2017-03-31T00:33:18.022Z,11.7
2017-03-31T00:34:20.866Z,11.6
2017-03-31T00:35:23.493Z,11.6
2017-03-31T00:36:26.340Z,11.6
2017-03-31T00:37:28.681Z,11.6
2017-03-31T00:38:31.396Z,11.6
2017-03-31T00:39:34.802Z,11.6
2017-03-31T00:40:37.394Z,11.6
2017-03-31T00:41:39.741Z,11.6
2017-03-31T00:42:42.599Z,11.6
2017-03-31T00:43:44.813Z,11.6
2017-03-31T00:44:47.660Z,11.6
2017-03-31T00:45:50.790Z,11.6
2017-03-31T00:46:53.133Z,11.6
2017-03-31T00:47:55.986Z,11.6
2017-03-31T00:48:58.833Z,11.6
2017-03-31T00:50:01.411Z,11.6
2017-03-31T00:51:04.511Z,11.6
2017-03-31T00:52:07.422Z,11.6
2017-03-31T00:53:09.262Z,11.5
2017-03-31T00:55:15.018Z,11.5
2017-03-31T00:56:17.980Z,11.5
2017-03-31T00:57:20.322Z,11.5
2017-03-31T00:58:23.038Z,11.5
2017-03-31T00:59:25.880Z,11.5
2017-03-31T01:00:28.728Z,11.5
2017-03-31T01:01:31.746Z,11.5
2017-03-31T01:02:34.090Z,11.5
2017-03-31T01:03:36.430Z,11.5
2017-03-31T01:04:39.276Z,11.5
2017-03-31T01:05:42.118Z,11.5
2017-03-31T01:06:45.211Z,11.5
2017-03-31T01:07:47.554Z,11.5
2017-03-31T01:08:49.972Z,11.4
2017-03-31T01:09:52.819Z,11.4
2017-03-31T01:10:55.671Z,11.4
2017-03-31T01:11:58.766Z,11.4
2017-03-31T01:13:01.114Z,11.4
2017-03-31T01:14:03.461Z,11.4
2017-03-31T01:15:06.303Z,11.4
2017-03-31T01:16:09.150Z,11.4
2017-03-31T01:18:14.658Z,11.4
2017-03-31T01:19:16.999Z,11.4
2017-03-31T01:20:19.842Z,11.3
2017-03-31T01:21:22.687Z,11.3
2017-03-31T01:22:25.402Z,11.3
2017-03-31T01:23:28.498Z,11.3
2017-03-31T01:24:30.896Z,11.3
2017-03-31T01:25:33.234Z,11.3
2017-03-31T01:26:35.948Z,11.3
2017-03-31T01:27:38.794Z,11.3
2017-03-31T01:28:41.893Z,11.3
2017-03-31T01:29:44.233Z,11.3
2017-03-31T01:31:49.484Z,11.3
2017-03-31T01:32:52.340Z,11.3
2017-03-31T01:33:55.438Z,11.3
2017-03-31T01:34:57.783Z,11.3
2017-03-31T01:36:00.630Z,11.3
2017-03-31T01:37:03.346Z,11.3
2017-03-31T01:38:06.059Z,11.3
2017-03-31T01:39:08.655Z,11.3
2017-03-31T01:40:11.225Z,11.3
2017-03-31T01:41:13.939Z,11.3
2017-03-31T01:42:16.650Z,11.2
2017-03-31T01:43:19.495Z,11.2
2017-03-31T01:44:22.591Z,11.2
2017-03-31T01:45:24.937Z,11.2
2017-03-31T01:46:27.659Z,11.2
2017-03-31T01:47:30.508Z,11.2
2017-03-31T01:48:32.848Z,11.2
2017-03-31T01:49:35.996Z,11.1
2017-03-31T01:50:38.339Z,11.2
2017-03-31T01:51:41.057Z,11.1
2017-03-31T01:52:43.901Z,11.1
2017-03-31T01:53:46.243Z,11.1
2017-03-31T01:54:49.265Z,11.1
2017-03-31T01:55:51.977Z,11.2
2017-03-31T01:56:54.824Z,11.2
2017-03-31T01:57:57.166Z,11.1
2017-03-31T01:59:00.016Z,11.1
2017-03-31T02:00:03.121Z,11.1
2017-03-31T02:01:05.460Z,11.1
2017-03-31T02:03:10.712Z,11.1
2017-03-31T02:04:13.617Z,11.1
2017-03-31T02:05:16.215Z,11.1
2017-03-31T02:06:19.071Z,11.1
2017-03-31T02:07:21.280Z,11.1
2017-03-31T02:08:24.125Z,11.1
2017-03-31T02:09:26.835Z,11
2017-03-31T02:10:29.936Z,11
2017-03-31T02:11:32.143Z,11
2017-03-31T02:12:34.988Z,11
2017-03-31T02:13:37.837Z,11
2017-03-31T02:14:40.548Z,11
2017-03-31T02:15:43.517Z,11
2017-03-31T02:16:45.465Z,11
2017-03-31T02:17:48.679Z,11
2017-03-31T02:18:51.527Z,10.9
2017-03-31T02:19:53.867Z,11
2017-03-31T02:20:56.967Z,11
2017-03-31T02:21:59.310Z,10.9
2017-03-31T02:23:01.887Z,10.9
2017-03-31T02:24:04.735Z,10.9
2017-03-31T02:25:07.577Z,10.9
2017-03-31T02:26:10.679Z,10.9
2017-03-31T02:27:12.896Z,10.9
2017-03-31T02:28:15.609Z,10.9
2017-03-31T02:29:18.458Z,10.8
2017-03-31T02:30:20.799Z,10.8
2017-03-31T02:31:23.898Z,10.8
2017-03-31T02:32:26.242Z,10.8
2017-03-31T02:33:28.961Z,10.8
2017-03-31T02:34:31.811Z,10.8
2017-03-31T02:35:34.668Z,10.8
2017-03-31T02:36:37.317Z,10.8
2017-03-31T02:37:39.660Z,10.8
2017-03-31T02:38:42.509Z,10.8
2017-03-31T02:39:45.363Z,10.8
2017-03-31T02:40:47.704Z,10.8
2017-03-31T02:41:50.812Z,10.8
2017-03-31T02:42:53.155Z,10.8
2017-03-31T02:43:56.014Z,10.8
2017-03-31T02:46:01.268Z,10.8
2017-03-31T02:48:07.199Z,10.8
2017-03-31T02:49:09.549Z,10.8
2017-03-31T02:50:12.402Z,10.7
2017-03-31T02:51:14.745Z,10.7
2017-03-31T02:52:17.593Z,10.7
2017-03-31T02:53:20.690Z,10.7
2017-03-31T02:54:22.895Z,10.7
2017-03-31T02:55:25.753Z,10.7
2017-03-31T02:56:28.600Z,10.7
2017-03-31T02:57:30.946Z,10.7
2017-03-31T02:58:34.042Z,10.7
2017-03-31T02:59:36.386Z,10.7
2017-03-31T03:00:39.236Z,10.7
2017-03-31T03:01:41.577Z,10.7
2017-03-31T03:02:44.296Z,10.7
2017-03-31T03:03:47.312Z,10.7
2017-03-31T03:04:49.660Z,10.7
2017-03-31T03:05:52.509Z,10.6
2017-03-31T03:06:55.218Z,10.6
2017-03-31T03:07:58.062Z,10.6
2017-03-31T03:09:00.707Z,10.6
2017-03-31T03:10:03.422Z,10.6
2017-03-31T03:11:06.271Z,10.6
2017-03-31T03:12:08.618Z,10.6
2017-03-31T03:13:11.467Z,10.6
2017-03-31T03:14:14.563Z,10.6
2017-03-31T03:15:16.910Z,10.6
2017-03-31T03:16:19.619Z,10.6
2017-03-31T03:24:41.110Z,10.6
2017-03-31T03:25:43.952Z,10.6
2017-03-31T03:26:46.359Z,10.5
2017-03-31T03:27:49.201Z,10.5
2017-03-31T03:28:51.910Z,10.5
2017-03-31T03:29:54.369Z,10.5
2017-03-31T03:30:57.213Z,10.5
2017-03-31T03:31:59.927Z,10.5
2017-03-31T03:33:02.781Z,10.5
2017-03-31T03:34:05.130Z,10.5
2017-03-31T03:35:08.093Z,10.5
2017-03-31T03:36:10.435Z,10.5
2017-03-31T03:37:13.282Z,10.5
2017-03-31T03:38:16.126Z,10.5
2017-03-31T03:39:18.841Z,10.5
2017-03-31T03:40:21.433Z,10.5
2017-03-31T03:41:24.145Z,10.5
2017-03-31T03:42:26.489Z,10.5
2017-03-31T03:43:29.334Z,10.5
2017-03-31T03:44:32.181Z,10.5
2017-03-31T03:45:35.279Z,10.5
2017-03-31T03:46:37.485Z,10.4
2017-03-31T03:47:40.196Z,10.4
2017-03-31T03:48:42.810Z,10.4
2017-03-31T03:49:45.663Z,10.4
2017-03-31T03:50:48.122Z,10.4
2017-03-31T03:51:50.978Z,10.4
2017-03-31T03:52:53.825Z,10.4
2017-03-31T03:54:58.948Z,10.4
2017-03-31T03:57:04.455Z,10.4
2017-03-31T03:57:34.588Z,10.4
2017-03-31T03:58:07.129Z,10.3
2017-03-31T03:59:09.981Z,10.3
2017-03-31T04:00:12.190Z,10.3
2017-03-31T04:01:15.040Z,10.3
2017-03-31T04:02:18.002Z,10.3
2017-03-31T04:03:20.347Z,10.3
2017-03-31T04:04:22.923Z,10.3
2017-03-31T04:05:25.664Z,10.3
2017-03-31T04:06:28.510Z,10.3
2017-03-31T04:07:31.607Z,10.3
2017-03-31T04:08:33.823Z,10.3
2017-03-31T04:09:36.668Z,10.3
2017-03-31T04:10:39.517Z,10.3
2017-03-31T04:11:41.864Z,10.2
2017-03-31T04:12:44.692Z,10.2
2017-03-31T04:13:47.540Z,10.2
2017-03-31T04:14:49.886Z,10.2
2017-03-31T04:15:52.607Z,10.2
2017-03-31T04:16:56.021Z,10.1
2017-03-31T04:17:58.109Z,10.2
2017-03-31T04:19:00.826Z,10.1
2017-03-31T04:20:03.537Z,10.1
2017-03-31T04:21:05.880Z,10.1
2017-03-31T04:23:11.938Z,10.1
2017-03-31T04:24:14.282Z,10.1
2017-03-31T04:25:16.633Z,10.1
2017-03-31T04:26:19.482Z,10.1
2017-03-31T04:27:22.338Z,10.1
2017-03-31T04:28:25.300Z,10.1
2017-03-31T04:29:27.508Z,10.1
2017-03-31T04:30:30.358Z,10.1
2017-03-31T04:31:33.202Z,10.1
2017-03-31T04:32:35.410Z,10.1
2017-03-31T04:33:38.501Z,10.1
2017-03-31T04:34:40.844Z,10.1
2017-03-31T04:35:43.688Z,10.1
2017-03-31T04:36:46.530Z,10.1
2017-03-31T04:37:48.873Z,10.1
2017-03-31T04:38:51.974Z,10.1
2017-03-31T04:39:54.313Z,10.1
2017-03-31T04:40:57.167Z,10.1
2017-03-31T04:41:59.748Z,10.1
2017-03-31T04:43:02.598Z,10.1
2017-03-31T04:44:05.194Z,10.1
2017-03-31T04:45:08.042Z,10.2
2017-03-31T04:46:10.381Z,10.2
2017-03-31T04:47:13.227Z,10.2
2017-03-31T04:48:16.075Z,10.2
2017-03-31T04:49:18.586Z,10.2
2017-03-31T04:50:21.301Z,10.2
2017-03-31T04:51:23.646Z,10.2
2017-03-31T04:52:26.494Z,10.2
2017-03-31T04:53:29.211Z,10.3
2017-03-31T04:54:32.309Z,10.3
2017-03-31T04:55:34.650Z,10.3
2017-03-31T04:56:37.371Z,10.3
2017-03-31T04:58:42.622Z,10.3
2017-03-31T04:59:45.580Z,10.3
2017-03-31T05:00:48.346Z,10.3
2017-03-31T05:01:50.554Z,10.3
2017-03-31T05:02:53.955Z,10.3
2017-03-31T05:03:56.301Z,10.3
2017-03-31T05:04:58.943Z,10.3
2017-03-31T05:06:01.296Z,10.3
2017-03-31T05:08:06.920Z,10.4
2017-03-31T05:09:09.633Z,10.3
2017-03-31T05:10:12.226Z,10.3
2017-03-31T05:11:15.073Z,10.3
2017-03-31T05:12:17.415Z,10.4
2017-03-31T05:13:20.281Z,10.4
2017-03-31T05:14:23.127Z,10.4
2017-03-31T05:15:25.725Z,10.4
2017-03-31T05:16:27.935Z,10.5
2017-03-31T05:17:30.785Z,10.5
2017-03-31T05:18:33.630Z,10.5
2017-03-31T05:19:36.475Z,10.5
2017-03-31T05:20:39.070Z,10.5
2017-03-31T05:21:41.684Z,10.5
2017-03-31T05:22:44.529Z,10.6
2017-03-31T05:24:49.516Z,10.6
2017-03-31T05:25:52.619Z,10.6
2017-03-31T05:26:54.826Z,10.6
2017-03-31T05:32:08.558Z,10.8
2017-03-31T05:34:14.371Z,11
2017-03-31T05:35:16.712Z,11
2017-03-31T05:36:19.058Z,11
2017-03-31T05:37:22.727Z,11.1
2017-03-31T05:38:24.566Z,11.2
2017-03-31T05:39:27.411Z,11.2
2017-03-31T05:40:30.128Z,11.3
2017-03-31T05:41:32.470Z,11.3
2017-03-31T05:42:35.620Z,11.4
2017-03-31T05:43:37.962Z,11.5
2017-03-31T05:44:40.806Z,11.6
2017-03-31T05:45:43.652Z,11.7
2017-03-31T05:46:45.998Z,11.8
2017-03-31T05:47:49.091Z,12
2017-03-31T05:48:51.429Z,12
2017-03-31T05:49:54.138Z,12.1
2017-03-31T05:50:56.985Z,12.3
2017-03-31T05:51:59.335Z,12.3
2017-03-31T05:53:02.489Z,12.5
2017-03-31T05:54:04.835Z,12.5
2017-03-31T05:55:08.247Z,12.6
2017-03-31T05:56:10.591Z,12.6
2017-03-31T05:57:12.931Z,12.7
2017-03-31T05:58:16.027Z,12.8
2017-03-31T05:59:18.370Z,12.9
2017-03-31T06:00:21.215Z,13.1
2017-03-31T06:01:24.064Z,13.1
2017-03-31T06:02:26.410Z,13.2
2017-03-31T06:06:37.561Z,13.6
2017-03-31T06:07:41.042Z,13.6
2017-03-31T06:08:42.887Z,13.6
2017-03-31T06:09:45.595Z,13.8
2017-03-31T06:11:51.474Z,13.7
2017-03-31T06:13:56.734Z,14
2017-03-31T06:14:59.077Z,14.1
2017-03-31T06:16:01.927Z,14.2
2017-03-31T06:17:05.029Z,14.3
2017-03-31T06:18:07.369Z,14.1
2017-03-31T06:19:10.082Z,14.1
2017-03-31T06:20:12.794Z,14.2
2017-03-31T06:21:15.640Z,14.3
2017-03-31T06:22:18.735Z,14.2
2017-03-31T06:23:20.943Z,14.3
2017-03-31T06:24:23.792Z,14.4
2017-03-31T06:25:26.640Z,14.5
2017-03-31T06:26:29.486Z,14.6
2017-03-31T06:27:32.502Z,14.8
2017-03-31T06:28:34.841Z,14.8
2017-03-31T06:29:37.697Z,14.8
2017-03-31T06:30:40.411Z,14.8
2017-03-31T06:32:45.914Z,14.8
2017-03-31T06:33:48.765Z,14.9
2017-03-31T06:34:51.478Z,14.9
2017-03-31T06:35:54.195Z,15
2017-03-31T06:36:56.906Z,15
2017-03-31T06:38:00.008Z,15
2017-03-31T06:39:02.232Z,15.2
2017-03-31T06:40:05.078Z,15.3
2017-03-31T06:41:07.788Z,15.3
2017-03-31T06:42:10.634Z,15.4
2017-03-31T06:43:13.596Z,15.5
2017-03-31T06:44:15.940Z,15.6
2017-03-31T06:45:18.787Z,15.9
2017-03-31T06:46:21.499Z,16
2017-03-31T06:47:24.347Z,15.8
2017-03-31T06:48:27.379Z,15.8
2017-03-31T06:49:29.728Z,15.9
2017-03-31T06:50:32.577Z,16
2017-03-31T06:51:35.425Z,16.1
2017-03-31T06:52:38.269Z,16.2
2017-03-31T06:53:41.371Z,16.2
2017-03-31T06:54:43.719Z,16.2
2017-03-31T06:55:46.430Z,16.2
2017-03-31T06:56:49.270Z,16.3
2017-03-31T06:57:51.978Z,16.3
2017-03-31T06:58:55.124Z,16.3
2017-03-31T06:59:57.333Z,16.1
2017-03-31T07:01:00.421Z,16.2
2017-03-31T07:02:03.269Z,16.4
2017-03-31T07:03:05.981Z,16.6
2017-03-31T07:04:09.639Z,16.8
2017-03-31T07:05:11.477Z,16.5
2017-03-31T07:06:14.324Z,16.5
2017-03-31T07:07:17.036Z,16.5
2017-03-31T07:08:19.915Z,16.5
2017-03-31T07:09:23.061Z,16.6
2017-03-31T07:10:25.773Z,16.7
2017-03-31T07:11:28.116Z,16.8
2017-03-31T07:12:31.335Z,17
2017-03-31T07:14:36.837Z,17
2017-03-31T07:15:39.686Z,17.2
2017-03-31T07:16:42.534Z,17.2
2017-03-31T07:17:44.875Z,17.4
2017-03-31T07:18:47.722Z,17.5
2017-03-31T07:19:50.821Z,17.6
2017-03-31T07:20:53.668Z,17.7
2017-03-31T07:21:56.516Z,17.8
2017-03-31T07:22:58.793Z,17.6
2017-03-31T07:24:01.512Z,17.7
2017-03-31T07:25:04.988Z,17.9
2017-03-31T07:26:07.203Z,18.1
2017-03-31T07:27:10.052Z,17.9
2017-03-31T07:28:12.901Z,18
2017-03-31T07:29:15.747Z,18
2017-03-31T07:30:18.847Z,18
2017-03-31T07:31:21.687Z,18.1
2017-03-31T07:32:24.402Z,18.1
2017-03-31T07:33:27.247Z,18
2017-03-31T07:35:33.252Z,18.1
2017-03-31T07:36:35.595Z,18.1
2017-03-31T07:37:38.445Z,18.1
2017-03-31T07:38:41.296Z,18.1
2017-03-31T07:39:44.096Z,18
2017-03-31T07:40:47.199Z,18.3
2017-03-31T07:41:49.407Z,18.6
2017-03-31T07:42:52.256Z,18.8
2017-03-31T07:43:55.100Z,18.8
2017-03-31T07:44:58.316Z,18.8
2017-03-31T07:46:01.412Z,18.7
2017-03-31T07:47:03.621Z,18.8
2017-03-31T07:48:06.702Z,18.8
2017-03-31T07:49:09.555Z,19
2017-03-31T07:50:12.401Z,19.2
2017-03-31T07:51:15.504Z,19.1
2017-03-31T07:52:17.714Z,19.3
2017-03-31T07:53:20.558Z,19.3
2017-03-31T07:54:23.408Z,19.1
2017-03-31T07:55:26.253Z,19.3
2017-03-31T07:56:29.350Z,19
2017-03-31T07:57:32.193Z,19
2017-03-31T07:58:35.049Z,19.1
2017-03-31T07:59:37.762Z,19.3
2017-03-31T08:00:40.475Z,19.1
2017-03-31T08:01:43.576Z,19.3
2017-03-31T08:02:46.293Z,19.4
2017-03-31T08:03:49.138Z,19.4
2017-03-31T08:04:51.980Z,19.2
2017-03-31T08:05:54.830Z,19.3
2017-03-31T08:06:57.936Z,19.3
2017-03-31T08:08:00.653Z,19.3
2017-03-31T08:10:06.414Z,19.5
2017-03-31T08:11:09.142Z,19.5
2017-03-31T08:12:12.134Z,19.5
2017-03-31T08:13:14.982Z,19.1
2017-03-31T08:14:17.825Z,19.4
2017-03-31T08:17:26.244Z,19.5
2017-03-31T08:18:29.092Z,19.5
2017-03-31T08:19:31.940Z,19.7
2017-03-31T08:20:34.786Z,19.8
2017-03-31T08:21:37.636Z,20
2017-03-31T08:22:40.736Z,20.2
2017-03-31T08:23:43.585Z,20.3
2017-03-31T08:24:46.439Z,20.3
2017-03-31T08:26:51.564Z,20.4
2017-03-31T08:32:06.302Z,21.5
2017-03-31T08:34:12.065Z,22.3
2017-03-31T08:36:17.822Z,22.3
2017-03-31T08:37:20.823Z,22.4
2017-03-31T08:38:23.164Z,22.5
2017-03-31T08:40:29.295Z,22.6
2017-03-31T08:41:32.141Z,22.4
2017-03-31T08:43:37.881Z,22.2
2017-03-31T08:44:40.455Z,22.1
2017-03-31T08:45:43.300Z,21.4
2017-03-31T08:46:46.220Z,21
2017-03-31T08:47:48.936Z,20.9
2017-03-31T08:48:52.585Z,20.7
2017-03-31T08:53:03.526Z,20.3
2017-03-31T08:54:06.679Z,20.3
2017-03-31T08:55:09.038Z,20.3
2017-03-31T08:56:11.890Z,20.3
2017-03-31T08:57:15.237Z,20.3
2017-03-31T08:58:18.137Z,20.1
2017-03-31T08:59:21.283Z,20.1
2017-03-31T09:00:23.492Z,20.1
2017-03-31T09:01:26.343Z,20
2017-03-31T09:02:29.696Z,19.9
2017-03-31T09:04:35.754Z,19.6
2017-03-31T09:05:38.102Z,19.5
2017-03-31T09:06:40.953Z,19.6
2017-03-31T09:07:43.795Z,19.6
2017-03-31T09:10:52.634Z,19.6
2017-03-31T09:11:55.488Z,19.6
2017-03-31T09:12:58.333Z,19.6
2017-03-31T09:14:01.041Z,19.6
2017-03-31T09:15:03.885Z,19.6
2017-03-31T09:16:07.033Z,19.5
2017-03-31T09:17:09.884Z,19.5
2017-03-31T09:18:12.730Z,19.3
2017-03-31T09:19:15.990Z,19.3
2017-03-31T09:20:18.204Z,19.3
2017-03-31T09:21:21.352Z,19.3
2017-03-31T09:22:24.196Z,19.3
2017-03-31T09:23:26.907Z,19.2
2017-03-31T09:26:35.887Z,19.3
2017-03-31T09:27:38.740Z,19.3
2017-03-31T09:28:41.587Z,19.2
2017-03-31T09:30:47.206Z,19.2
2017-03-31T09:31:50.359Z,19.2
2017-03-31T09:32:52.695Z,19.1
2017-03-31T09:33:55.404Z,19.1
2017-03-31T09:34:59.327Z,19.1
2017-03-31T09:36:01.668Z,19
2017-03-31T09:37:04.817Z,19
2017-03-31T09:38:07.164Z,19
2017-03-31T09:39:10.004Z,19.1
2017-03-31T09:40:12.852Z,19
2017-03-31T09:41:15.563Z,19
2017-03-31T09:42:18.712Z,19
2017-03-31T09:43:21.558Z,19
2017-03-31T09:44:24.267Z,19.1
2017-03-31T09:45:27.112Z,19
2017-03-31T09:46:29.688Z,18.8
2017-03-31T09:47:33.761Z,18.8
2017-03-31T09:48:35.600Z,18.9
2017-03-31T09:50:41.361Z,18.9
2017-03-31T09:53:50.151Z,18.8
2017-03-31T09:55:55.779Z,18.7
2017-03-31T09:56:58.625Z,18.7
2017-03-31T09:59:04.637Z,18.7
2017-03-31T10:00:06.985Z,18.8
2017-03-31T10:01:09.834Z,18.9
2017-03-31T10:02:12.684Z,18.9
2017-03-31T10:03:16.088Z,19
2017-03-31T10:04:18.739Z,19
2017-03-31T10:05:21.583Z,18.9
2017-03-31T10:06:24.430Z,18.9
2017-03-31T10:07:27.277Z,19
2017-03-31T10:08:30.155Z,18.8
2017-03-31T10:09:33.255Z,18.8
2017-03-31T10:10:35.599Z,18.8
2017-03-31T10:11:38.683Z,18.7
2017-03-31T10:12:41.541Z,18.9
2017-03-31T10:13:44.388Z,19
2017-03-31T10:14:47.352Z,18.9
2017-03-31T10:15:49.634Z,18.9
2017-03-31T10:16:52.850Z,18.8
2017-03-31T10:17:55.571Z,18.8
2017-03-31T10:18:58.416Z,18.8
2017-03-31T10:20:01.516Z,18.9
2017-03-31T10:21:04.362Z,18.8
2017-03-31T10:22:07.267Z,18.8
2017-03-31T10:23:10.111Z,18.8
2017-03-31T10:24:12.957Z,18.7
2017-03-31T10:25:16.122Z,18.7
2017-03-31T10:26:18.468Z,18.9
2017-03-31T10:27:21.313Z,19
2017-03-31T10:29:26.929Z,19.1
2017-03-31T10:30:30.078Z,19.1
2017-03-31T10:31:32.924Z,19.1
2017-03-31T10:32:35.777Z,19
2017-03-31T10:33:38.489Z,19
2017-03-31T10:34:41.339Z,18.9
2017-03-31T10:35:45.114Z,19
2017-03-31T10:36:47.322Z,19
2017-03-31T10:37:50.032Z,19
2017-03-31T10:38:53.289Z,19
2017-03-31T10:39:55.366Z,19
2017-03-31T10:40:58.756Z,19
2017-03-31T10:42:01.604Z,19
2017-03-31T10:43:04.453Z,19.1
2017-03-31T10:44:07.297Z,19.3
2017-03-31T10:45:10.142Z,19.4
2017-03-31T10:46:13.024Z,19.4
2017-03-31T10:47:15.871Z,19.2
2017-03-31T10:48:18.721Z,19.2
2017-03-31T10:49:21.432Z,19.2
2017-03-31T10:50:24.144Z,19.2
2017-03-31T10:51:27.297Z,19.3
2017-03-31T10:52:30.146Z,19.2
2017-03-31T10:53:32.991Z,19.3
2017-03-31T10:54:35.841Z,19.1
2017-03-31T10:55:38.743Z,19.1
2017-03-31T10:56:41.900Z,19.1
2017-03-31T10:57:44.802Z,19.1
2017-03-31T10:58:47.009Z,19.1
2017-03-31T10:59:50.086Z,19.1
2017-03-31T11:00:52.800Z,19.2
2017-03-31T11:01:55.816Z,19.5
2017-03-31T11:02:58.661Z,19.5
2017-03-31T11:04:01.505Z,19.4
2017-03-31T11:05:04.353Z,19.4
2017-03-31T11:06:07.065Z,19.4
2017-03-31T11:07:10.084Z,19.6
2017-03-31T11:08:12.933Z,19.6
2017-03-31T11:09:16.355Z,19.6
2017-03-31T11:11:21.611Z,19.6
2017-03-31T11:12:24.770Z,19.5
2017-03-31T11:14:30.060Z,19.9
2017-03-31T11:15:32.910Z,19.7
2017-03-31T11:16:35.760Z,19.8
2017-03-31T11:17:38.969Z,19.7
2017-03-31T11:18:41.683Z,19.6
2017-03-31T11:19:44.535Z,19.6
2017-03-31T11:20:47.244Z,19.5
2017-03-31T11:21:49.960Z,19.5
2017-03-31T11:22:53.424Z,19.6
2017-03-31T11:23:55.631Z,19.6
2017-03-31T11:24:59.408Z,19.5
2017-03-31T11:26:01.750Z,19.5
2017-03-31T11:27:04.600Z,19.5
2017-03-31T11:28:07.701Z,19.6
2017-03-31T11:29:10.040Z,19.6
2017-03-31T11:30:12.884Z,19.5
2017-03-31T11:31:15.728Z,19.4
2017-03-31T11:32:18.942Z,19.3
2017-03-31T11:33:21.904Z,19.3
2017-03-31T11:34:24.753Z,19.2
2017-03-31T11:35:27.600Z,19.2
2017-03-31T11:36:30.443Z,19.5
2017-03-31T11:37:33.295Z,19.6
2017-03-31T11:38:36.186Z,19.5
2017-03-31T11:39:39.035Z,19.5
2017-03-31T11:40:41.752Z,19.3
2017-03-31T11:41:44.597Z,19.2
2017-03-31T11:42:47.445Z,19.2
2017-03-31T11:44:53.369Z,19.2
2017-03-31T11:45:56.778Z,19.3
2017-03-31T11:46:58.989Z,19.3
2017-03-31T11:50:07.776Z,19.5
2017-03-31T11:51:10.681Z,19.5
2017-03-31T11:52:13.081Z,19.5
2017-03-31T11:53:15.927Z,19.6
2017-03-31T11:54:18.777Z,19.6
2017-03-31T11:55:21.875Z,19.7
2017-03-31T11:56:24.794Z,19.5
2017-03-31T11:57:27.505Z,19.5
2017-03-31T11:58:30.360Z,19.3
2017-03-31T11:59:33.205Z,19.5
2017-03-31T12:00:36.316Z,19.6
2017-03-31T12:01:39.161Z,19.6
2017-03-31T12:02:42.010Z,19.5
2017-03-31T12:03:44.860Z,19.5
2017-03-31T12:04:47.574Z,19.4
2017-03-31T12:05:51.037Z,19.5
2017-03-31T12:06:53.248Z,19.6
2017-03-31T12:07:55.970Z,19.6
2017-03-31T12:08:59.316Z,19.8
2017-03-31T12:10:02.169Z,20
2017-03-31T12:11:05.268Z,19.9
2017-03-31T12:12:07.611Z,19.9
2017-03-31T12:13:10.456Z,20
2017-03-31T12:14:13.306Z,20
2017-03-31T12:15:16.663Z,20.1
2017-03-31T12:16:19.233Z,20.4
2017-03-31T12:17:22.083Z,20.3
2017-03-31T12:18:24.661Z,20.1
2017-03-31T12:19:28.011Z,20.1
2017-03-31T12:20:30.857Z,20.2
2017-03-31T12:21:33.824Z,20.4
2017-03-31T12:22:36.671Z,20.3
2017-03-31T12:23:39.384Z,20.5
2017-03-31T12:25:45.142Z,20.5
2017-03-31T12:26:48.106Z,20.3
2017-03-31T12:28:54.046Z,20.1
2017-03-31T12:29:56.948Z,20.1
2017-03-31T12:30:59.793Z,20.2
2017-03-31T12:32:02.945Z,20.1
2017-03-31T12:33:05.294Z,20.1
2017-03-31T12:34:08.143Z,20
2017-03-31T12:35:10.994Z,20
2017-03-31T12:36:13.843Z,20
2017-03-31T12:37:17.312Z,20
2017-03-31T12:38:19.653Z,20.1
2017-03-31T12:39:22.501Z,20
2017-03-31T12:40:25.347Z,20.2
2017-03-31T12:42:31.356Z,20.2
2017-03-31T12:43:34.064Z,20.1
2017-03-31T12:45:39.822Z,20.3
2017-03-31T12:46:42.669Z,20.3
2017-03-31T12:47:45.630Z,20.2
2017-03-31T12:48:48.475Z,20.3
2017-03-31T12:49:51.326Z,20.2
2017-03-31T12:50:54.171Z,20.3
2017-03-31T12:51:57.521Z,20.1
2017-03-31T12:53:00.618Z,20
2017-03-31T12:54:02.969Z,20
2017-03-31T12:55:05.547Z,20
2017-03-31T12:56:08.762Z,20.1
2017-03-31T12:57:11.608Z,20.1
2017-03-31T12:58:14.715Z,20.2
2017-03-31T12:59:17.430Z,20.2
2017-03-31T13:00:20.276Z,20.3
2017-03-31T13:01:23.127Z,20.2
2017-03-31T13:02:25.977Z,20
2017-03-31T13:03:29.071Z,19.8
2017-03-31T13:04:31.922Z,20
2017-03-31T13:05:34.775Z,20
2017-03-31T13:06:37.623Z,20
2017-03-31T13:08:43.682Z,20
2017-03-31T13:09:46.533Z,20.1
2017-03-31T13:11:52.298Z,20.2
2017-03-31T13:12:55.151Z,20.4
2017-03-31T13:13:58.113Z,20.4
2017-03-31T13:15:00.959Z,20.4
2017-03-31T13:17:06.715Z,20.3
2017-03-31T13:18:09.560Z,20.2
2017-03-31T13:19:12.710Z,20.4
2017-03-31T13:20:15.053Z,20.3
2017-03-31T13:21:17.905Z,20.5
2017-03-31T13:22:21.127Z,20.5
2017-03-31T13:23:23.975Z,20.5
2017-03-31T13:24:26.942Z,20.5
2017-03-31T13:25:29.792Z,20.5
2017-03-31T13:29:41.620Z,20.6
2017-03-31T13:31:46.876Z,20.6
2017-03-31T13:32:49.592Z,20.7
2017-03-31T13:33:52.812Z,20.8
2017-03-31T13:34:55.911Z,20.8
2017-03-31T13:35:58.762Z,20.6
2017-03-31T13:37:01.607Z,20.6
2017-03-31T13:40:10.256Z,20.9
2017-03-31T13:41:13.106Z,20.6
2017-03-31T13:43:18.859Z,20.5
2017-03-31T13:44:21.704Z,20.5
2017-03-31T13:48:34.092Z,20.7
2017-03-31T13:49:35.931Z,20.6
2017-03-31T13:51:42.196Z,20.6
2017-03-31T13:52:45.314Z,20.6
2017-03-31T13:53:47.770Z,20.6
2017-03-31T13:55:53.526Z,20.7
2017-03-31T13:56:56.241Z,20.7
2017-03-31T13:57:59.153Z,20.8
2017-03-31T13:59:02.256Z,20.8
2017-03-31T14:00:05.155Z,20.7
2017-03-31T14:01:08.576Z,20.7
2017-03-31T14:03:13.701Z,20.8
2017-03-31T14:05:19.763Z,20.8
2017-03-31T14:07:25.390Z,20.9
2017-03-31T14:08:28.099Z,21
2017-03-31T14:10:34.405Z,20.8
2017-03-31T14:11:37.127Z,21
2017-03-31T14:12:39.979Z,21
2017-03-31T14:13:42.823Z,20.9
2017-03-31T14:14:45.665Z,21
2017-03-31T14:15:48.763Z,21
2017-03-31T14:16:51.690Z,21
2017-03-31T14:17:54.542Z,21
2017-03-31T14:18:57.399Z,21
2017-03-31T14:20:00.116Z,21
2017-03-31T14:21:03.088Z,21.1
2017-03-31T14:22:05.937Z,21.1
2017-03-31T14:23:08.785Z,21.1
2017-03-31T14:24:12.191Z,21
2017-03-31T14:25:14.532Z,21.1
2017-03-31T14:26:17.677Z,21.1
2017-03-31T14:27:20.528Z,21.1
2017-03-31T14:28:23.239Z,21.2
2017-03-31T14:29:25.953Z,21.1
2017-03-31T14:30:29.306Z,21.3
2017-03-31T14:31:32.407Z,21.3
2017-03-31T14:32:34.613Z,21.5
2017-03-31T14:33:37.832Z,21.4
2017-03-31T14:34:40.546Z,21.5
2017-03-31T14:35:43.255Z,21.5
2017-03-31T14:36:46.856Z,21.6
2017-03-31T14:37:49.066Z,21.5
2017-03-31T14:38:52.421Z,21.5
2017-03-31T14:39:55.138Z,21.5
2017-03-31T14:40:58.356Z,21.5
2017-03-31T14:42:01.880Z,21.5
2017-03-31T14:43:03.727Z,21.5
2017-03-31T14:44:06.809Z,21.4
2017-03-31T14:45:09.665Z,21.5
2017-03-31T14:46:12.513Z,21.6
2017-03-31T14:47:15.613Z,21.5
2017-03-31T14:48:18.461Z,21.5
2017-03-31T14:49:21.306Z,21.6
2017-03-31T14:50:24.155Z,21.5
2017-03-31T14:51:27.053Z,21.5
2017-03-31T14:52:30.148Z,21.5
2017-03-31T14:53:32.991Z,21.6
2017-03-31T14:54:35.713Z,21.5
2017-03-31T14:55:39.061Z,21.5
2017-03-31T14:56:41.907Z,21.4
2017-03-31T14:57:45.002Z,21.4
2017-03-31T14:58:47.344Z,21.3
2017-03-31T14:59:51.276Z,21.5
2017-03-31T15:00:53.623Z,21.5
2017-03-31T15:01:56.469Z,21.5
2017-03-31T15:02:59.440Z,21.3
2017-03-31T15:04:02.287Z,21.3
2017-03-31T15:05:05.007Z,21.5
2017-03-31T15:06:07.855Z,21.4
2017-03-31T15:07:10.705Z,21.5
2017-03-31T15:08:13.807Z,21.5
2017-03-31T15:09:16.657Z,21.5
2017-03-31T15:10:19.502Z,21.5
2017-03-31T15:11:22.351Z,21.5
2017-03-31T15:12:25.202Z,21.4
2017-03-31T15:13:28.299Z,21.3
2017-03-31T15:14:31.009Z,21.3
2017-03-31T15:15:33.855Z,21.1
2017-03-31T15:16:37.205Z,21.3
2017-03-31T15:17:39.918Z,21.2
2017-03-31T15:18:43.018Z,21.1
2017-03-31T15:19:45.869Z,21.1
2017-03-31T15:22:54.323Z,21.1
2017-03-31T15:26:03.487Z,21
2017-03-31T15:27:05.834Z,21.1
2017-03-31T15:28:09.186Z,21.1
2017-03-31T15:29:12.599Z,21.1
2017-03-31T15:30:14.946Z,21.1
2017-03-31T15:32:21.015Z,20.9
2017-03-31T15:32:51.150Z,20.9
2017-03-31T15:33:23.294Z,20.9
2017-03-31T15:35:29.566Z,20.7
2017-03-31T15:36:32.409Z,20.6
2017-03-31T15:37:35.286Z,20.6
2017-03-31T15:38:38.137Z,20.6